Terminal Aerodrome Forecast
Issued by NWS Upton, NY

Home | Current Version | Previous Version | Text Only | Print | Product List | Glossary On
Versions: 1 2 3 4 5 6 7 8 9 10 11 12 13 14 15 16 17 18 19 20 21 22 23 24 25 26 27 28 29 30 31
540
FTUS41 KOKX 240240 AAA
TAFJFK
TAF AMD
KJFK 240240Z 2403/2506 33010KT P6SM FEW100 FEW250
     FM240600 33006KT P6SM SKC
     FM241500 26007KT P6SM SKC
     FM241700 18012KT P6SM FEW050
     FM241900 18017KT P6SM FEW050
     FM250100 18010KT P6SM SCT050=

USA.gov is the U.S. government's official web portal to all federal, state and local government web resources and services.